Albany, IL

9:07 AM CST on March 01, 2015 (GMT -0600)
Clinton Municipal | Change Station
CLOSE
Current Station
Airport
Location: Clinton,
Elevation: 709 ft
Nearby Weather Stations
Active Advisory: Special Statement Active Notice: Record Report

Elev 709 ft 41.83 °N, 90.33 °W | Updated 32 minutes ago

Fog
Fog
12 °F
Feels Like 12 °F
N
0
Wind Variable Wind from North

Today
High -- | Low -- °F
--% Chance of Precip.
Yesterday
High -- | Low -- °F
Precip. -- in
6:36 AM 5:51 PM
Waxing Gibbous, 85% visible
Pressure 30.39 in
Visibility 0.2 miles
Clouds Overcast 200 ft
Dew Point 10 °F
Humidity 92%
Rainfall 0.05 in
Snow Depth Not available.
UV 0 out of 12
Pollen .50 out of 12
Air Quality Not available.
Flu Activity Not available.
METAR KCWI 011435Z AUTO 00000KT M1/4SM OVC002 M11/M12 A3039 RMK AO1 P0001

More Conditions Fewer Conditions

Pressure 30.39 in
Visibility 0.2 miles
Clouds Overcast 200 ft
Dew Point 10 °F
Humidity 92%
Rainfall 0.05 in
Snow Depth Not available.
UV 0 out of 12
Pollen .50 out of 12
Air Quality Not available.
Flu Activity Not available.
METAR KCWI 011435Z AUTO 00000KT M1/4SM OVC002 M11/M12 A3039 RMK AO1 P0001

More Conditions Fewer Conditions

10-Day Weather Forecast

Almanac

Astronomy

Mar. 01, 2015 Rise Set
Actual Time
Civil Twilight
Nautical Twilight
Astronomical Twilight
Moon
Length of Visible Light
Length of Day
Tomorrow will be .
, % of the Moon is Illuminated

Today's Extremes

State Highs State Lows

Community

WunderPhotos

Upload Photos

1,801,406 photos uploaded!

WunderBlogs® & News

Nearby

Air Quality

  Air Quality AQ Index Pollutant
Not available.

Snow Depth

Station Depth Elevation

Earthquake Activity

City Distance Mag. Time & Date
Minimum magnitude displayed is 2.5.

Coastal Water Temperatures

Place Temperature

Nearby Weather Stations

Special Statement
Statement as of 6:33 AM CST on March 01, 2015


... Patchy dense fog this morning...

Areas of patchy dense fog have developed this morning. Visibility of
1/4 mile or less have been reported across the area. Those who are
driving are encouraged to slow down if they encounter fog... and
plan for extra time to reach their destinations. Visbilities
should improve by mid morning.